sensor_id;sensor_type;location;lat;lon;timestamp;P1;durP1;ratioP1;P2;durP2;ratioP2
40953;SDS011;26686;50.130;8.710;2023-06-14T00:02:31;4.35;;;3.92;;
40953;SDS011;26686;50.130;8.710;2023-06-14T00:07:33;5.05;;;4.18;;
40953;SDS011;26686;50.130;8.710;2023-06-14T00:12:45;5.13;;;3.60;;
40953;SDS011;26686;50.130;8.710;2023-06-14T00:17:47;5.03;;;4.50;;
40953;SDS011;26686;50.130;8.710;2023-06-14T00:22:49;4.45;;;4.05;;
40953;SDS011;26686;50.130;8.710;2023-06-14T00:27:51;4.33;;;3.30;;
40953;SDS011;26686;50.130;8.710;2023-06-14T00:32:53;4.50;;;3.92;;
40953;SDS011;26686;50.130;8.710;2023-06-14T00:37:55;4.05;;;3.28;;
40953;SDS011;26686;50.130;8.710;2023-06-14T00:42:57;4.25;;;3.85;;
40953;SDS011;26686;50.130;8.710;2023-06-14T00:47:58;3.47;;;3.17;;
40953;SDS011;26686;50.130;8.710;2023-06-14T00:53:01;5.03;;;3.60;;
40953;SDS011;26686;50.130;8.710;2023-06-14T00:58:03;4.25;;;3.85;;
40953;SDS011;26686;50.130;8.710;2023-06-14T01:03:05;6.15;;;4.13;;
40953;SDS011;26686;50.130;8.710;2023-06-14T01:13:30;5.90;;;4.20;;
40953;SDS011;26686;50.130;8.710;2023-06-14T01:18:35;4.13;;;3.83;;
40953;SDS011;26686;50.130;8.710;2023-06-14T01:23:38;4.38;;;3.97;;
40953;SDS011;26686;50.130;8.710;2023-06-14T01:28:39;5.95;;;3.45;;
40953;SDS011;26686;50.130;8.710;2023-06-14T01:33:41;5.15;;;3.78;;
40953;SDS011;26686;50.130;8.710;2023-06-14T01:38:42;5.45;;;4.18;;
40953;SDS011;26686;50.130;8.710;2023-06-14T01:43:46;6.28;;;4.13;;
40953;SDS011;26686;50.130;8.710;2023-06-14T01:48:49;3.85;;;3.38;;
40953;SDS011;26686;50.130;8.710;2023-06-14T01:53:51;5.22;;;3.58;;
40953;SDS011;26686;50.130;8.710;2023-06-14T01:58:53;4.47;;;4.07;;
40953;SDS011;26686;50.130;8.710;2023-06-14T02:03:54;4.60;;;4.10;;
40953;SDS011;26686;50.130;8.710;2023-06-14T02:08:56;5.18;;;3.65;;
40953;SDS011;26686;50.130;8.710;2023-06-14T02:13:58;5.03;;;3.67;;
40953;SDS011;26686;50.130;8.710;2023-06-14T02:19:01;4.85;;;3.50;;
40953;SDS011;26686;50.130;8.710;2023-06-14T02:24:03;3.92;;;3.55;;
40953;SDS011;26686;50.130;8.710;2023-06-14T02:29:04;4.78;;;3.60;;
40953;SDS011;26686;50.130;8.710;2023-06-14T02:34:06;4.40;;;3.65;;
40953;SDS011;26686;50.130;8.710;2023-06-14T02:39:11;4.50;;;4.07;;
40953;SDS011;26686;50.130;8.710;2023-06-14T02:44:13;5.60;;;3.75;;
40953;SDS011;26686;50.130;8.710;2023-06-14T02:49:14;3.83;;;3.40;;
40953;SDS011;26686;50.130;8.710;2023-06-14T02:54:16;5.97;;;3.15;;
40953;SDS011;26686;50.130;8.710;2023-06-14T02:59:17;4.85;;;3.65;;
40953;SDS011;26686;50.130;8.710;2023-06-14T03:04:20;4.78;;;3.08;;
40953;SDS011;26686;50.130;8.710;2023-06-14T03:09:22;5.70;;;4.03;;
40953;SDS011;26686;50.130;8.710;2023-06-14T03:14:24;6.50;;;3.95;;
40953;SDS011;26686;50.130;8.710;2023-06-14T03:19:25;4.40;;;3.45;;
40953;SDS011;26686;50.130;8.710;2023-06-14T03:24:27;5.85;;;3.90;;
40953;SDS011;26686;50.130;8.710;2023-06-14T03:29:28;4.95;;;3.75;;
40953;SDS011;26686;50.130;8.710;2023-06-14T03:34:30;5.40;;;3.72;;
40953;SDS011;26686;50.130;8.710;2023-06-14T03:39:32;4.38;;;3.80;;
40953;SDS011;26686;50.130;8.710;2023-06-14T03:44:34;3.78;;;3.00;;
40953;SDS011;26686;50.130;8.710;2023-06-14T03:49:35;4.38;;;3.58;;
40953;SDS011;26686;50.130;8.710;2023-06-14T03:54:37;5.00;;;3.95;;
40953;SDS011;26686;50.130;8.710;2023-06-14T03:59:42;5.03;;;3.40;;
40953;SDS011;26686;50.130;8.710;2023-06-14T04:04:43;6.15;;;3.67;;
40953;SDS011;26686;50.130;8.710;2023-06-14T04:09:46;4.85;;;3.28;;
40953;SDS011;26686;50.130;8.710;2023-06-14T04:14:48;5.10;;;3.38;;
40953;SDS011;26686;50.130;8.710;2023-06-14T04:19:49;4.97;;;3.38;;
40953;SDS011;26686;50.130;8.710;2023-06-14T04:24:50;6.45;;;3.67;;
40953;SDS011;26686;50.130;8.710;2023-06-14T04:30:05;4.50;;;4.05;;
40953;SDS011;26686;50.130;8.710;2023-06-14T04:35:13;6.05;;;3.38;;
40953;SDS011;26686;50.130;8.710;2023-06-14T04:40:14;5.07;;;3.58;;
40953;SDS011;26686;50.130;8.710;2023-06-14T04:45:17;5.03;;;3.67;;
40953;SDS011;26686;50.130;8.710;2023-06-14T04:50:18;4.28;;;3.05;;
40953;SDS011;26686;50.130;8.710;2023-06-14T04:55:21;3.37;;;2.83;;
40953;SDS011;26686;50.130;8.710;2023-06-14T05:00:23;3.35;;;2.92;;
40953;SDS011;26686;50.130;8.710;2023-06-14T05:05:24;4.60;;;3.17;;
40953;SDS011;26686;50.130;8.710;2023-06-14T05:10:26;3.85;;;3.42;;
40953;SDS011;26686;50.130;8.710;2023-06-14T05:15:27;3.40;;;3.05;;
40953;SDS011;26686;50.130;8.710;2023-06-14T05:20:30;4.55;;;2.97;;
40953;SDS011;26686;50.130;8.710;2023-06-14T05:25:32;4.93;;;3.33;;
40953;SDS011;26686;50.130;8.710;2023-06-14T05:30:34;5.28;;;3.58;;
40953;SDS011;26686;50.130;8.710;2023-06-14T05:35:35;5.63;;;3.63;;
40953;SDS011;26686;50.130;8.710;2023-06-14T05:40:37;3.78;;;3.38;;
40953;SDS011;26686;50.130;8.710;2023-06-14T05:45:38;5.28;;;3.60;;
40953;SDS011;26686;50.130;8.710;2023-06-14T05:50:40;3.25;;;2.95;;
40953;SDS011;26686;50.130;8.710;2023-06-14T05:55:42;5.47;;;3.35;;
40953;SDS011;26686;50.130;8.710;2023-06-14T06:00:45;9.57;;;3.35;;
40953;SDS011;26686;50.130;8.710;2023-06-14T06:05:47;6.43;;;3.17;;
40953;SDS011;26686;50.130;8.710;2023-06-14T06:10:48;5.22;;;3.40;;
40953;SDS011;26686;50.130;8.710;2023-06-14T06:15:50;3.75;;;3.03;;
40953;SDS011;26686;50.130;8.710;2023-06-14T06:20:51;4.60;;;3.40;;
40953;SDS011;26686;50.130;8.710;2023-06-14T06:25:54;5.00;;;3.17;;
40953;SDS011;26686;50.130;8.710;2023-06-14T06:30:56;5.45;;;3.70;;
40953;SDS011;26686;50.130;8.710;2023-06-14T06:35:58;4.75;;;2.92;;
40953;SDS011;26686;50.130;8.710;2023-06-14T06:40:59;4.55;;;2.70;;
40953;SDS011;26686;50.130;8.710;2023-06-14T06:46:01;5.55;;;3.22;;
40953;SDS011;26686;50.130;8.710;2023-06-14T06:51:03;4.50;;;2.72;;
40953;SDS011;26686;50.130;8.710;2023-06-14T06:56:06;4.45;;;2.55;;
40953;SDS011;26686;50.130;8.710;2023-06-14T07:01:09;4.13;;;2.60;;
40953;SDS011;26686;50.130;8.710;2023-06-14T07:06:10;2.20;;;1.60;;
40953;SDS011;26686;50.130;8.710;2023-06-14T07:11:12;3.33;;;2.00;;
40953;SDS011;26686;50.130;8.710;2023-06-14T07:16:14;2.30;;;1.73;;
40953;SDS011;26686;50.130;8.710;2023-06-14T07:21:18;2.92;;;1.60;;
40953;SDS011;26686;50.130;8.710;2023-06-14T07:26:19;3.55;;;1.38;;
40953;SDS011;26686;50.130;8.710;2023-06-14T07:31:21;3.25;;;1.45;;
40953;SDS011;26686;50.130;8.710;2023-06-14T07:36:23;3.03;;;1.20;;
40953;SDS011;26686;50.130;8.710;2023-06-14T07:41:25;1.83;;;1.38;;
40953;SDS011;26686;50.130;8.710;2023-06-14T07:46:27;1.63;;;1.52;;
40953;SDS011;26686;50.130;8.710;2023-06-14T07:51:30;1.38;;;1.27;;
40953;SDS011;26686;50.130;8.710;2023-06-14T07:56:31;2.37;;;1.40;;
40953;SDS011;26686;50.130;8.710;2023-06-14T08:01:33;3.33;;;1.60;;
40953;SDS011;26686;50.130;8.710;2023-06-14T08:06:35;4.30;;;1.33;;
40953;SDS011;26686;50.130;8.710;2023-06-14T08:11:37;1.40;;;1.10;;
40953;SDS011;26686;50.130;8.710;2023-06-14T08:16:39;1.88;;;1.42;;
40953;SDS011;26686;50.130;8.710;2023-06-14T08:21:41;3.13;;;1.35;;
40953;SDS011;26686;50.130;8.710;2023-06-14T08:26:42;1.83;;;1.25;;
40953;SDS011;26686;50.130;8.710;2023-06-14T08:31:44;2.03;;;1.02;;
40953;SDS011;26686;50.130;8.710;2023-06-14T08:36:46;1.92;;;0.70;;
40953;SDS011;26686;50.130;8.710;2023-06-14T08:41:47;1.55;;;1.35;;
40953;SDS011;26686;50.130;8.710;2023-06-14T08:46:52;1.80;;;0.90;;
40953;SDS011;26686;50.130;8.710;2023-06-14T08:51:59;1.73;;;1.00;;
40953;SDS011;26686;50.130;8.710;2023-06-14T08:57:05;4.32;;;1.25;;
40953;SDS011;26686;50.130;8.710;2023-06-14T09:02:08;1.98;;;0.98;;
40953;SDS011;26686;50.130;8.710;2023-06-14T09:07:14;2.63;;;1.17;;
40953;SDS011;26686;50.130;8.710;2023-06-14T09:12:16;2.17;;;0.82;;
40953;SDS011;26686;50.130;8.710;2023-06-14T09:17:18;1.63;;;1.10;;
40953;SDS011;26686;50.130;8.710;2023-06-14T09:22:19;2.42;;;1.38;;
40953;SDS011;26686;50.130;8.710;2023-06-14T09:27:25;3.40;;;1.27;;
40953;SDS011;26686;50.130;8.710;2023-06-14T09:32:27;1.98;;;1.25;;
40953;SDS011;26686;50.130;8.710;2023-06-14T09:37:29;3.17;;;1.10;;
40953;SDS011;26686;50.130;8.710;2023-06-14T09:42:32;2.53;;;1.30;;
40953;SDS011;26686;50.130;8.710;2023-06-14T09:47:36;5.28;;;1.50;;
40953;SDS011;26686;50.130;8.710;2023-06-14T09:52:50;1.52;;;0.98;;
40953;SDS011;26686;50.130;8.710;2023-06-14T09:57:54;1.25;;;1.15;;
40953;SDS011;26686;50.130;8.710;2023-06-14T10:02:58;2.67;;;1.05;;
40953;SDS011;26686;50.130;8.710;2023-06-14T10:08:08;2.25;;;1.40;;
40953;SDS011;26686;50.130;8.710;2023-06-14T10:13:12;2.90;;;1.27;;
40953;SDS011;26686;50.130;8.710;2023-06-14T10:23:41;1.55;;;1.02;;
40953;SDS011;26686;50.130;8.710;2023-06-14T10:28:44;2.47;;;1.45;;
40953;SDS011;26686;50.130;8.710;2023-06-14T10:33:58;3.08;;;1.45;;
40953;SDS011;26686;50.130;8.710;2023-06-14T10:39:01;3.13;;;1.27;;
40953;SDS011;26686;50.130;8.710;2023-06-14T10:49:17;1.30;;;1.20;;
40953;SDS011;26686;50.130;8.710;2023-06-14T10:54:22;3.45;;;1.73;;
40953;SDS011;26686;50.130;8.710;2023-06-14T10:59:24;3.05;;;1.20;;
40953;SDS011;26686;50.130;8.710;2023-06-14T11:04:33;2.78;;;1.60;;
40953;SDS011;26686;50.130;8.710;2023-06-14T11:09:53;2.28;;;1.20;;
40953;SDS011;26686;50.130;8.710;2023-06-14T11:15:06;1.63;;;1.23;;
40953;SDS011;26686;50.130;8.710;2023-06-14T11:20:09;1.90;;;1.38;;
40953;SDS011;26686;50.130;8.710;2023-06-14T11:25:12;2.08;;;0.95;;
40953;SDS011;26686;50.130;8.710;2023-06-14T11:30:17;2.15;;;0.88;;
40953;SDS011;26686;50.130;8.710;2023-06-14T11:35:22;2.40;;;1.00;;
40953;SDS011;26686;50.130;8.710;2023-06-14T11:40:27;2.55;;;1.13;;
40953;SDS011;26686;50.130;8.710;2023-06-14T11:45:29;1.20;;;1.00;;
40953;SDS011;26686;50.130;8.710;2023-06-14T11:50:31;2.83;;;0.90;;
40953;SDS011;26686;50.130;8.710;2023-06-14T12:00:40;1.52;;;1.13;;
40953;SDS011;26686;50.130;8.710;2023-06-14T12:10:45;2.42;;;1.48;;
40953;SDS011;26686;50.130;8.710;2023-06-14T12:15:53;1.50;;;1.33;;
40953;SDS011;26686;50.130;8.710;2023-06-14T12:20:58;1.77;;;1.40;;
40953;SDS011;26686;50.130;8.710;2023-06-14T12:26:03;3.03;;;1.88;;
40953;SDS011;26686;50.130;8.710;2023-06-14T12:31:06;2.53;;;1.55;;
40953;SDS011;26686;50.130;8.710;2023-06-14T12:36:08;1.98;;;1.67;;
40953;SDS011;26686;50.130;8.710;2023-06-14T12:41:11;2.03;;;1.70;;
40953;SDS011;26686;50.130;8.710;2023-06-14T12:46:13;5.40;;;1.90;;
40953;SDS011;26686;50.130;8.710;2023-06-14T12:51:14;2.08;;;1.75;;
40953;SDS011;26686;50.130;8.710;2023-06-14T12:56:16;2.77;;;1.87;;
40953;SDS011;26686;50.130;8.710;2023-06-14T13:01:18;1.27;;;1.10;;
40953;SDS011;26686;50.130;8.710;2023-06-14T13:06:20;3.10;;;1.40;;
40953;SDS011;26686;50.130;8.710;2023-06-14T13:11:23;2.05;;;1.45;;
40953;SDS011;26686;50.130;8.710;2023-06-14T13:16:25;2.13;;;1.50;;
40953;SDS011;26686;50.130;8.710;2023-06-14T13:21:26;2.15;;;1.40;;
40953;SDS011;26686;50.130;8.710;2023-06-14T13:26:28;2.10;;;1.90;;
40953;SDS011;26686;50.130;8.710;2023-06-14T13:31:29;3.72;;;1.60;;
40953;SDS011;26686;50.130;8.710;2023-06-14T13:36:31;2.70;;;1.30;;
40953;SDS011;26686;50.130;8.710;2023-06-14T13:41:33;2.08;;;1.35;;
40953;SDS011;26686;50.130;8.710;2023-06-14T13:46:36;4.50;;;1.10;;
40953;SDS011;26686;50.130;8.710;2023-06-14T13:51:55;2.42;;;1.50;;
40953;SDS011;26686;50.130;8.710;2023-06-14T13:56:56;2.42;;;0.95;;
40953;SDS011;26686;50.130;8.710;2023-06-14T14:02:16;4.50;;;1.55;;
40953;SDS011;26686;50.130;8.710;2023-06-14T14:07:17;3.03;;;1.20;;
40953;SDS011;26686;50.130;8.710;2023-06-14T14:12:19;1.52;;;1.42;;
40953;SDS011;26686;50.130;8.710;2023-06-14T14:17:38;2.05;;;0.85;;
40953;SDS011;26686;50.130;8.710;2023-06-14T14:22:58;3.47;;;1.50;;
40953;SDS011;26686;50.130;8.710;2023-06-14T14:28:01;4.45;;;1.60;;
40953;SDS011;26686;50.130;8.710;2023-06-14T14:33:03;1.65;;;1.27;;
40953;SDS011;26686;50.130;8.710;2023-06-14T14:38:05;2.05;;;1.00;;
40953;SDS011;26686;50.130;8.710;2023-06-14T14:43:08;2.45;;;1.40;;
40953;SDS011;26686;50.130;8.710;2023-06-14T14:48:09;1.52;;;1.20;;
40953;SDS011;26686;50.130;8.710;2023-06-14T14:53:11;1.35;;;1.15;;
40953;SDS011;26686;50.130;8.710;2023-06-14T14:58:15;1.35;;;1.25;;
40953;SDS011;26686;50.130;8.710;2023-06-14T15:03:20;1.95;;;1.25;;
40953;SDS011;26686;50.130;8.710;2023-06-14T15:08:24;1.55;;;1.20;;
40953;SDS011;26686;50.130;8.710;2023-06-14T15:13:25;2.88;;;1.20;;
40953;SDS011;26686;50.130;8.710;2023-06-14T15:18:27;2.03;;;1.70;;
40953;SDS011;26686;50.130;8.710;2023-06-14T15:23:28;2.35;;;1.25;;
40953;SDS011;26686;50.130;8.710;2023-06-14T15:28:30;1.58;;;1.20;;
40953;SDS011;26686;50.130;8.710;2023-06-14T15:33:33;3.90;;;1.55;;
40953;SDS011;26686;50.130;8.710;2023-06-14T15:38:38;2.10;;;1.40;;
40953;SDS011;26686;50.130;8.710;2023-06-14T15:43:40;3.65;;;1.42;;
40953;SDS011;26686;50.130;8.710;2023-06-14T15:48:41;1.92;;;1.23;;
40953;SDS011;26686;50.130;8.710;2023-06-14T15:53:44;2.10;;;1.30;;
40953;SDS011;26686;50.130;8.710;2023-06-14T15:58:45;1.42;;;1.20;;
40953;SDS011;26686;50.130;8.710;2023-06-14T16:03:47;2.75;;;1.25;;
40953;SDS011;26686;50.130;8.710;2023-06-14T16:08:48;1.77;;;1.23;;
40953;SDS011;26686;50.130;8.710;2023-06-14T16:13:53;2.45;;;1.58;;
40953;SDS011;26686;50.130;8.710;2023-06-14T16:18:56;2.13;;;1.00;;
40953;SDS011;26686;50.130;8.710;2023-06-14T16:23:58;2.05;;;1.58;;
40953;SDS011;26686;50.130;8.710;2023-06-14T16:28:59;1.77;;;1.40;;
40953;SDS011;26686;50.130;8.710;2023-06-14T16:34:01;2.55;;;1.38;;
40953;SDS011;26686;50.130;8.710;2023-06-14T16:39:02;1.60;;;1.20;;
40953;SDS011;26686;50.130;8.710;2023-06-14T16:44:04;3.03;;;1.50;;
40953;SDS011;26686;50.130;8.710;2023-06-14T16:49:06;2.17;;;1.77;;
40953;SDS011;26686;50.130;8.710;2023-06-14T16:54:08;1.42;;;1.30;;
40953;SDS011;26686;50.130;8.710;2023-06-14T16:59:09;3.10;;;1.52;;
40953;SDS011;26686;50.130;8.710;2023-06-14T17:04:11;2.03;;;1.55;;
40953;SDS011;26686;50.130;8.710;2023-06-14T17:09:13;2.00;;;1.40;;
40953;SDS011;26686;50.130;8.710;2023-06-14T17:14:15;2.50;;;1.08;;
40953;SDS011;26686;50.130;8.710;2023-06-14T17:19:16;1.67;;;1.58;;
40953;SDS011;26686;50.130;8.710;2023-06-14T17:24:18;3.03;;;1.33;;
40953;SDS011;26686;50.130;8.710;2023-06-14T17:29:26;2.95;;;1.85;;
40953;SDS011;26686;50.130;8.710;2023-06-14T17:34:28;3.87;;;2.10;;
40953;SDS011;26686;50.130;8.710;2023-06-14T17:39:29;2.00;;;1.75;;
40953;SDS011;26686;50.130;8.710;2023-06-14T17:44:31;3.50;;;1.92;;
40953;SDS011;26686;50.130;8.710;2023-06-14T17:49:32;3.63;;;2.10;;
40953;SDS011;26686;50.130;8.710;2023-06-14T17:54:35;5.13;;;2.10;;
40953;SDS011;26686;50.130;8.710;2023-06-14T17:59:37;1.70;;;1.60;;
40953;SDS011;26686;50.130;8.710;2023-06-14T18:04:38;3.20;;;2.20;;
40953;SDS011;26686;50.130;8.710;2023-06-14T18:09:43;2.22;;;1.42;;
40953;SDS011;26686;50.130;8.710;2023-06-14T18:14:45;2.53;;;1.60;;
40953;SDS011;26686;50.130;8.710;2023-06-14T18:19:46;2.47;;;1.70;;
40953;SDS011;26686;50.130;8.710;2023-06-14T18:24:47;2.45;;;1.75;;
40953;SDS011;26686;50.130;8.710;2023-06-14T18:29:49;3.00;;;1.63;;
40953;SDS011;26686;50.130;8.710;2023-06-14T18:34:51;2.28;;;1.95;;
40953;SDS011;26686;50.130;8.710;2023-06-14T18:39:53;2.45;;;1.52;;
40953;SDS011;26686;50.130;8.710;2023-06-14T18:44:55;3.45;;;2.00;;
40953;SDS011;26686;50.130;8.710;2023-06-14T18:49:56;3.28;;;1.90;;
40953;SDS011;26686;50.130;8.710;2023-06-14T18:54:58;2.15;;;1.95;;
40953;SDS011;26686;50.130;8.710;2023-06-14T18:59:59;1.75;;;1.65;;
40953;SDS011;26686;50.130;8.710;2023-06-14T19:05:01;2.88;;;1.75;;
40953;SDS011;26686;50.130;8.710;2023-06-14T19:10:06;3.38;;;1.65;;
40953;SDS011;26686;50.130;8.710;2023-06-14T19:15:08;2.95;;;1.90;;
40953;SDS011;26686;50.130;8.710;2023-06-14T19:20:10;1.60;;;1.47;;
40953;SDS011;26686;50.130;8.710;2023-06-14T19:25:13;3.05;;;2.53;;
40953;SDS011;26686;50.130;8.710;2023-06-14T19:35:17;2.13;;;1.85;;
40953;SDS011;26686;50.130;8.710;2023-06-14T19:40:21;2.40;;;2.20;;
40953;SDS011;26686;50.130;8.710;2023-06-14T19:45:22;4.18;;;2.63;;
40953;SDS011;26686;50.130;8.710;2023-06-14T19:50:24;3.05;;;2.53;;
40953;SDS011;26686;50.130;8.710;2023-06-14T19:55:26;2.75;;;2.08;;
40953;SDS011;26686;50.130;8.710;2023-06-14T20:00:27;2.45;;;1.98;;
40953;SDS011;26686;50.130;8.710;2023-06-14T20:05:29;2.70;;;1.85;;
40953;SDS011;26686;50.130;8.710;2023-06-14T20:10:31;2.10;;;1.90;;
40953;SDS011;26686;50.130;8.710;2023-06-14T20:15:33;2.65;;;2.40;;
40953;SDS011;26686;50.130;8.710;2023-06-14T20:20:34;1.98;;;1.88;;
40953;SDS011;26686;50.130;8.710;2023-06-14T20:25:36;2.35;;;2.15;;
40953;SDS011;26686;50.130;8.710;2023-06-14T20:30:38;3.10;;;2.25;;
40953;SDS011;26686;50.130;8.710;2023-06-14T20:35:39;3.33;;;1.98;;
40953;SDS011;26686;50.130;8.710;2023-06-14T20:40:41;4.57;;;1.88;;
40953;SDS011;26686;50.130;8.710;2023-06-14T20:45:42;2.28;;;2.08;;
40953;SDS011;26686;50.130;8.710;2023-06-14T20:50:44;2.85;;;1.92;;
40953;SDS011;26686;50.130;8.710;2023-06-14T20:55:46;3.05;;;2.10;;
40953;SDS011;26686;50.130;8.710;2023-06-14T21:00:47;3.67;;;2.20;;
40953;SDS011;26686;50.130;8.710;2023-06-14T21:05:50;2.75;;;1.90;;
40953;SDS011;26686;50.130;8.710;2023-06-14T21:10:52;2.38;;;1.80;;
40953;SDS011;26686;50.130;8.710;2023-06-14T21:15:57;2.05;;;1.85;;
40953;SDS011;26686;50.130;8.710;2023-06-14T21:20:59;1.98;;;1.80;;
40953;SDS011;26686;50.130;8.710;2023-06-14T21:26:00;4.30;;;1.50;;
40953;SDS011;26686;50.130;8.710;2023-06-14T21:31:06;1.67;;;1.58;;
40953;SDS011;26686;50.130;8.710;2023-06-14T21:36:09;1.50;;;1.40;;
40953;SDS011;26686;50.130;8.710;2023-06-14T21:41:11;2.70;;;1.73;;
40953;SDS011;26686;50.130;8.710;2023-06-14T21:46:13;2.45;;;2.13;;
40953;SDS011;26686;50.130;8.710;2023-06-14T21:51:14;2.30;;;1.70;;
40953;SDS011;26686;50.130;8.710;2023-06-14T21:56:16;3.03;;;1.85;;
40953;SDS011;26686;50.130;8.710;2023-06-14T22:01:19;1.85;;;1.40;;
40953;SDS011;26686;50.130;8.710;2023-06-14T22:06:21;2.22;;;1.58;;
40953;SDS011;26686;50.130;8.710;2023-06-14T22:11:22;1.73;;;1.60;;
40953;SDS011;26686;50.130;8.710;2023-06-14T22:16:27;2.25;;;2.05;;
40953;SDS011;26686;50.130;8.710;2023-06-14T22:21:32;6.30;;;2.10;;
40953;SDS011;26686;50.130;8.710;2023-06-14T22:26:41;2.78;;;1.83;;
40953;SDS011;26686;50.130;8.710;2023-06-14T22:31:48;3.58;;;1.73;;
40953;SDS011;26686;50.130;8.710;2023-06-14T22:36:50;2.28;;;2.05;;
40953;SDS011;26686;50.130;8.710;2023-06-14T22:41:55;2.10;;;1.50;;
40953;SDS011;26686;50.130;8.710;2023-06-14T22:46:57;2.45;;;1.83;;
40953;SDS011;26686;50.130;8.710;2023-06-14T22:52:01;2.38;;;1.58;;
40953;SDS011;26686;50.130;8.710;2023-06-14T22:57:05;2.65;;;1.42;;
40953;SDS011;26686;50.130;8.710;2023-06-14T23:02:08;1.92;;;1.70;;
40953;SDS011;26686;50.130;8.710;2023-06-14T23:07:16;2.10;;;1.63;;
40953;SDS011;26686;50.130;8.710;2023-06-14T23:12:23;3.30;;;2.15;;
40953;SDS011;26686;50.130;8.710;2023-06-14T23:17:26;5.70;;;1.70;;
40953;SDS011;26686;50.130;8.710;2023-06-14T23:22:32;2.03;;;1.65;;
40953;SDS011;26686;50.130;8.710;2023-06-14T23:27:37;2.03;;;1.88;;
40953;SDS011;26686;50.130;8.710;2023-06-14T23:32:39;1.85;;;1.75;;
40953;SDS011;26686;50.130;8.710;2023-06-14T23:37:41;3.47;;;1.75;;
40953;SDS011;26686;50.130;8.710;2023-06-14T23:42:42;4.93;;;3.45;;
40953;SDS011;26686;50.130;8.710;2023-06-14T23:47:44;5.85;;;5.30;;
40953;SDS011;26686;50.130;8.710;2023-06-14T23:52:46;3.63;;;3.33;;
40953;SDS011;26686;50.130;8.710;2023-06-14T23:57:47;2.60;;;2.15;;
